Time;durP1;ratioP1;P1;durP2;ratioP2;P2;SDS_P1;SDS_P2;PMS_P1;PMS_P2;Temp;Humidity;BMP_temperature;BMP_pressure;BME280_temperature;BME280_humidity;BME280_pressure;Samples;Min_cycle;Max_cycle;Signal;HPM_P1;HPM_P2
2022/08/18 00:01:40;;;;;;;10.48;7.50;;;;;;;24.32;62.37;100507.69;5080262;28;20036;-71
2022/08/18 00:04:07;;;;;;;9.88;7.70;;;;;;;24.52;61.08;100498.25;5082915;28;20044;-72
2022/08/18 00:06:33;;;;;;;9.98;7.55;;;;;;;24.40;61.10;100494.28;5088028;28;20044;-72
2022/08/18 00:09:01;;;;;;;9.57;7.10;;;;;;;24.38;60.04;100498.16;5090547;27;20051;-71
2022/08/18 00:11:30;;;;;;;9.60;7.32;;;;;;;24.58;59.31;100497.53;5096622;27;20456;-71
2022/08/18 00:13:57;;;;;;;8.80;7.45;;;;;;;24.48;59.51;100502.28;5098468;27;20094;-71
2022/08/18 00:16:24;;;;;;;10.85;7.75;;;;;;;24.50;59.63;100488.72;5086819;27;20113;-70
2022/08/18 00:18:51;;;;;;;10.73;7.95;;;;;;;24.41;59.91;100489.75;5085721;27;20458;-70
2022/08/18 00:21:17;;;;;;;16.75;7.38;;;;;;;24.47;59.49;100489.03;5085889;27;20044;-70
2022/08/18 00:23:44;;;;;;;9.52;6.88;;;;;;;24.39;59.78;100478.38;5084975;27;20048;-70
2022/08/18 00:26:10;;;;;;;9.52;7.28;;;;;;;24.08;60.83;100479.13;5083388;28;20048;-71
2022/08/18 00:28:37;;;;;;;15.68;7.93;;;;;;;24.21;59.88;100490.16;5086333;28;20093;-71
2022/08/18 00:31:05;;;;;;;8.82;7.35;;;;;;;24.26;60.01;100486.97;5080290;27;20048;-71
2022/08/18 00:33:33;;;;;;;10.32;7.88;;;;;;;23.72;61.53;100485.94;5083817;27;20044;-71
2022/08/18 00:35:59;;;;;;;11.55;8.32;;;;;;;23.50;62.69;100481.28;5086257;27;20101;-71
2022/08/18 00:38:26;;;;;;;9.02;8.05;;;;;;;23.21;63.17;100479.03;5086642;27;20109;-71
2022/08/18 00:40:54;;;;;;;10.35;7.95;;;;;;;23.37;62.82;100483.56;5095756;27;20048;-71
2022/08/18 00:43:30;;;;;;;9.20;8.05;;;;;;;23.29;63.06;100479.88;5099777;27;20044;-71
2022/08/18 00:45:57;;;;;;;11.40;7.35;;;;;;;23.63;61.69;100487.78;5087273;28;20491;-71
2022/08/18 00:48:23;;;;;;;9.43;7.57;;;;;;;23.56;62.17;100492.13;5083971;28;20047;-70
2022/08/18 00:50:54;;;;;;;9.40;7.93;;;;;;;23.15;64.13;100482.41;5087086;28;20048;-70
2022/08/18 00:53:28;;;;;;;9.77;7.65;;;;;;;23.45;62.86;100487.13;5084679;27;20423;-71
2022/08/18 00:55:56;;;;;;;9.95;7.50;;;;;;;23.52;62.64;100493.47;5087564;27;20529;-71
2022/08/18 00:58:29;;;;;;;11.63;8.15;;;;;;;23.09;64.28;100488.41;5069558;27;20049;-71
2022/08/18 01:00:55;;;;;;;10.85;8.88;;;;;;;22.96;65.17;100480.03;5067544;28;20102;-71
2022/08/18 01:03:22;;;;;;;10.50;7.85;;;;;;;22.88;65.31;100478.19;5085498;27;20039;-71
2022/08/18 01:05:57;;;;;;;15.73;9.50;;;;;;;22.97;64.88;100481.72;5078383;28;20051;-71
2022/08/18 01:08:23;;;;;;;11.32;7.93;;;;;;;23.13;64.25;100484.41;5073373;28;20079;-73
2022/08/18 01:10:50;;;;;;;11.20;8.02;;;;;;;23.23;63.87;100475.22;5075119;27;20044;-73
2022/08/18 01:13:17;;;;;;;13.40;7.95;;;;;;;22.94;64.41;100474.03;5083209;27;20073;-71
2022/08/18 01:15:44;;;;;;;9.75;8.20;;;;;;;22.63;65.85;100469.25;5072636;28;20059;-71
2022/08/18 01:23:49;;;;;;;10.15;8.48;;;;;;;22.88;65.29;100472.00;5043728;28;20051;-71
2022/08/18 01:26:16;;;;;;;11.20;8.30;;;;;;;23.16;64.07;100476.06;5074264;27;20045;-71
2022/08/18 01:28:45;;;;;;;11.13;8.07;;;;;;;23.33;63.64;100468.84;5083778;27;20059;-73
2022/08/18 01:31:28;;;;;;;10.38;7.88;;;;;;;23.42;63.74;100476.75;5083368;28;20044;-73
2022/08/18 01:33:56;;;;;;;8.95;7.40;;;;;;;23.46;62.89;100477.25;5085490;27;20048;-71
2022/08/18 01:36:22;;;;;;;12.18;8.00;;;;;;;23.53;63.22;100472.91;5086627;28;20159;-72
2022/08/18 01:38:52;;;;;;;10.93;7.53;;;;;;;23.22;64.66;100475.38;5094781;27;20097;-72
2022/08/18 01:41:20;;;;;;;11.88;7.70;;;;;;;23.10;65.11;100472.19;5095660;27;20044;-73
2022/08/18 01:43:47;;;;;;;12.35;8.10;;;;;;;23.38;63.99;100469.19;5090662;27;20079;-72
2022/08/18 01:46:18;;;;;;;12.18;8.07;;;;;;;23.50;63.43;100473.25;5085686;28;20044;-72
2022/08/18 01:48:45;;;;;;;13.77;7.55;;;;;;;23.54;63.74;100477.25;5082847;28;20079;-72
2022/08/18 01:51:12;;;;;;;8.55;7.65;;;;;;;23.43;64.09;100467.69;5084916;28;20044;-72
2022/08/18 01:53:39;;;;;;;13.80;8.23;;;;;;;23.47;64.08;100469.03;5085164;28;20047;-73
2022/08/18 01:56:08;;;;;;;13.45;8.35;;;;;;;23.33;64.32;100474.19;5083589;27;20044;-72
2022/08/18 01:58:35;;;;;;;13.30;8.40;;;;;;;22.81;66.05;100487.84;5080941;27;20048;-72
2022/08/18 02:01:03;;;;;;;11.77;8.05;;;;;;;22.30;68.55;100499.50;5085276;28;20128;-72
2022/08/18 02:03:33;;;;;;;14.50;8.85;;;;;;;21.89;70.93;100498.44;5084304;28;20052;-72
2022/08/18 02:06:02;;;;;;;14.98;8.70;;;;;;;22.70;67.56;100490.84;5083361;28;20054;-73
2022/08/18 02:08:28;;;;;;;12.90;8.02;;;;;;;22.80;66.75;100476.31;5085082;27;20044;-73
2022/08/18 02:10:57;;;;;;;11.23;8.63;;;;;;;22.83;66.36;100477.00;5100269;27;20051;-73
2022/08/18 02:13:24;;;;;;;13.85;8.68;;;;;;;22.53;67.90;100481.91;5083108;27;20459;-73
2022/08/18 02:15:51;;;;;;;9.70;8.23;;;;;;;21.91;70.10;100482.31;5083770;27;20052;-73
2022/08/18 02:18:20;;;;;;;26.35;8.80;;;;;;;22.16;68.47;100490.28;5085582;27;20090;-72
2022/08/18 02:20:46;;;;;;;15.13;8.48;;;;;;;21.65;70.72;100496.47;5083332;27;20048;-72
2022/08/18 02:23:13;;;;;;;14.38;9.15;;;;;;;21.28;71.99;100487.81;5084386;27;20055;-71
2022/08/18 02:25:42;;;;;;;11.98;8.93;;;;;;;21.95;69.01;100489.00;5085011;27;20040;-71
2022/08/18 02:28:08;;;;;;;15.45;9.05;;;;;;;22.05;68.78;100485.22;5083091;27;20048;-72
2022/08/18 02:30:37;;;;;;;11.65;8.27;;;;;;;22.02;69.18;100484.69;5083952;27;20521;-72
2022/08/18 02:33:04;;;;;;;15.82;9.02;;;;;;;22.11;68.73;100476.56;5086454;28;20130;-72
2022/08/18 02:35:30;;;;;;;17.58;8.50;;;;;;;21.94;69.57;100488.16;5083486;28;20040;-72
2022/08/18 02:37:59;;;;;;;15.40;8.55;;;;;;;21.55;70.90;100481.50;5083669;27;20176;-73
2022/08/18 02:40:26;;;;;;;10.95;8.45;;;;;;;21.50;71.07;100486.50;5094057;27;20494;-73
2022/08/18 02:42:53;;;;;;;16.48;9.32;;;;;;;21.43;71.53;100488.09;5086020;27;20044;-73
2022/08/18 02:45:20;;;;;;;11.77;8.77;;;;;;;21.35;71.62;100495.06;5086296;27;20047;-74
2022/08/18 02:47:52;;;;;;;12.48;9.05;;;;;;;21.23;72.52;100482.09;5086790;27;20044;-74
2022/08/18 02:50:19;;;;;;;14.30;8.15;;;;;;;20.99;73.37;100485.34;5077134;27;20037;-74
2022/08/18 02:52:46;;;;;;;12.40;9.10;;;;;;;20.67;74.28;100490.34;5084854;28;20487;-75
2022/08/18 02:55:13;;;;;;;13.45;8.85;;;;;;;20.57;75.15;100494.91;5095860;28;20055;-74
2022/08/18 02:57:42;;;;;;;16.60;8.80;;;;;;;21.06;72.87;100490.94;5105132;28;20040;-74
2022/08/18 03:00:11;;;;;;;17.02;9.23;;;;;;;21.63;70.08;100484.25;5102978;27;20039;-73
2022/08/18 03:02:38;;;;;;;12.85;8.68;;;;;;;21.54;70.59;100480.69;5107315;27;20044;-74
2022/08/18 03:05:06;;;;;;;10.50;8.30;;;;;;;21.83;69.48;100489.22;5113795;27;20055;-74
2022/08/18 03:07:33;;;;;;;10.07;8.35;;;;;;;21.93;68.76;100496.31;5113436;28;20039;-75
2022/08/18 03:09:59;;;;;;;16.48;9.25;;;;;;;22.07;67.24;100504.56;5105429;28;20048;-74
2022/08/18 03:12:25;;;;;;;10.82;8.93;;;;;;;22.29;66.01;100503.19;5096022;27;20044;-74
2022/08/18 03:14:52;;;;;;;16.27;8.90;;;;;;;22.14;66.27;100510.94;5094086;27;20058;-73
2022/08/18 03:17:18;;;;;;;13.02;9.25;;;;;;;22.41;64.94;100512.59;5088746;27;20040;-74
2022/08/18 03:19:45;;;;;;;9.15;8.00;;;;;;;22.60;63.74;100511.50;5090124;28;20036;-74
2022/08/18 03:22:13;;;;;;;13.52;8.30;;;;;;;22.64;63.89;100507.50;5089554;28;20044;-74
2022/08/18 03:24:39;;;;;;;10.65;8.43;;;;;;;22.40;64.72;100518.09;5089043;28;20071;-72
2022/08/18 03:27:07;;;;;;;15.27;8.93;;;;;;;22.31;64.97;100515.41;5089604;27;20044;-73
2022/08/18 03:29:34;;;;;;;28.48;9.23;;;;;;;22.44;64.00;100506.91;5089563;27;20036;-73
2022/08/18 03:32:00;;;;;;;16.00;8.75;;;;;;;22.58;64.17;100513.50;5089425;28;20048;-72
2022/08/18 03:34:27;;;;;;;11.13;8.02;;;;;;;22.71;63.17;100508.56;5091252;27;20093;-73
2022/08/18 03:36:53;;;;;;;14.55;8.05;;;;;;;22.76;63.27;100509.72;5090256;28;20047;-73
2022/08/18 03:39:22;;;;;;;10.00;8.23;;;;;;;22.79;62.94;100500.56;5097655;27;20047;-73
2022/08/18 03:41:52;;;;;;;12.40;8.77;;;;;;;22.62;62.93;100509.47;5088970;27;20051;-73
2022/08/18 03:44:18;;;;;;;13.40;7.75;;;;;;;22.76;62.92;100516.94;5091878;28;20400;-72
2022/08/18 03:46:45;;;;;;;15.07;8.77;;;;;;;22.29;64.35;100513.84;5090067;28;20169;-72
2022/08/18 03:49:13;;;;;;;16.33;7.82;;;;;;;22.42;63.68;100514.28;5090503;28;20253;-73
2022/08/18 03:51:45;;;;;;;14.18;7.72;;;;;;;22.44;63.45;100514.94;5084437;28;20051;-72
2022/08/18 03:54:14;;;;;;;14.05;7.80;;;;;;;22.12;64.19;100515.63;5088962;28;20048;-70
2022/08/18 03:56:43;;;;;;;10.40;7.10;;;;;;;22.12;64.44;100512.13;5087724;28;20044;-69
2022/08/18 03:59:11;;;;;;;14.75;7.03;;;;;;;22.18;64.46;100525.66;5088511;27;20048;-66
2022/08/18 04:01:40;;;;;;;12.55;7.32;;;;;;;21.89;65.14;100511.78;5068123;28;20044;-66
2022/08/18 04:04:09;;;;;;;16.15;8.05;;;;;;;22.09;64.25;100515.94;5069361;28;20044;-66
2022/08/18 04:06:39;;;;;;;10.57;6.82;;;;;;;22.31;63.67;100518.06;5078889;28;20185;-66
2022/08/18 04:09:08;;;;;;;13.90;7.18;;;;;;;22.12;63.92;100523.63;5093630;27;20039;-66
2022/08/18 04:11:36;;;;;;;10.70;6.47;;;;;;;22.56;62.52;100524.34;5078781;27;20051;-66
2022/08/18 04:14:04;;;;;;;9.02;6.28;;;;;;;22.15;64.14;100526.00;5073289;28;20496;-66
2022/08/18 04:16:33;;;;;;;16.58;6.80;;;;;;;22.49;63.29;100526.00;5074875;28;20574;-66
2022/08/18 04:19:02;;;;;;;10.18;6.93;;;;;;;22.80;62.16;100528.94;5067973;28;20056;-67
2022/08/18 04:21:30;;;;;;;9.05;6.30;;;;;;;22.58;63.15;100529.53;5054362;28;20069;-67
2022/08/18 04:23:58;;;;;;;11.60;7.03;;;;;;;22.45;63.68;100539.81;5057949;28;20525;-67
2022/08/18 04:26:25;;;;;;;10.30;7.00;;;;;;;22.46;64.09;100546.84;5067921;28;20055;-67
2022/08/18 04:28:51;;;;;;;11.68;6.75;;;;;;;22.60;63.79;100538.22;5064261;28;20052;-66
2022/08/18 04:31:23;;;;;;;12.82;7.18;;;;;;;22.87;62.58;100535.34;5066547;28;20045;-66
2022/08/18 04:33:49;;;;;;;13.15;6.90;;;;;;;22.84;62.84;100538.31;5066420;28;20040;-64
2022/08/18 04:36:16;;;;;;;16.65;7.45;;;;;;;22.55;63.69;100548.53;5076249;27;20481;-65
2022/08/18 04:38:43;;;;;;;12.77;7.47;;;;;;;22.40;64.32;100545.63;5085145;27;20044;-65
2022/08/18 04:41:11;;;;;;;10.68;7.18;;;;;;;22.32;64.98;100556.28;5087177;28;20105;-65
2022/08/18 04:43:37;;;;;;;11.45;7.15;;;;;;;22.30;65.32;100558.28;5084379;27;20043;-64
2022/08/18 04:46:05;;;;;;;16.52;8.60;;;;;;;22.23;64.96;100557.25;5086899;28;20074;-65
2022/08/18 04:48:37;;;;;;;10.48;7.18;;;;;;;22.32;65.24;100557.13;5100951;27;20044;-65
2022/08/18 04:51:06;;;;;;;8.80;6.93;;;;;;;22.39;65.47;100545.81;5075625;28;20043;-65
2022/08/18 04:53:44;;;;;;;16.73;8.05;;;;;;;22.45;65.09;100551.34;5066051;27;20043;-65
2022/08/18 04:56:16;;;;;;;9.65;7.50;;;;;;;22.44;65.70;100543.47;5080859;27;20047;-64
2022/08/18 04:58:43;;;;;;;16.83;8.10;;;;;;;22.39;66.47;100548.50;5084936;27;20048;-65
2022/08/18 05:01:09;;;;;;;12.65;8.23;;;;;;;22.20;67.46;100547.72;5086229;28;20094;-63
2022/08/18 05:03:37;;;;;;;10.02;8.10;;;;;;;22.16;68.28;100546.38;5072939;28;20774;-64
2022/08/18 05:06:06;;;;;;;12.30;8.57;;;;;;;21.93;69.29;100550.53;5086673;28;20052;-64
2022/08/18 05:08:32;;;;;;;16.02;9.43;;;;;;;22.01;69.06;100553.28;5084036;27;20411;-65
2022/08/18 05:10:58;;;;;;;19.40;9.27;;;;;;;22.21;68.90;100559.22;5085845;27;20048;-68
2022/08/18 05:13:25;;;;;;;13.68;10.60;;;;;;;22.13;70.13;100557.38;5085474;27;20541;-65
2022/08/18 05:15:56;;;;;;;16.55;10.20;;;;;;;22.57;68.70;100568.78;5094142;27;20090;-64
2022/08/18 05:18:24;;;;;;;19.75;10.30;;;;;;;22.66;68.24;100559.78;5069122;28;20052;-68
2022/08/18 05:20:52;;;;;;;19.30;10.90;;;;;;;22.57;69.32;100559.94;5076020;27;20046;-68
2022/08/18 05:23:19;;;;;;;17.15;11.18;;;;;;;22.44;69.93;100564.84;5083619;27;20060;-67
2022/08/18 05:25:45;;;;;;;14.52;10.63;;;;;;;22.80;68.69;100569.88;5085783;27;20056;-68
2022/08/18 05:28:13;;;;;;;15.15;10.60;;;;;;;22.83;68.78;100573.25;5093301;27;20466;-68
2022/08/18 05:30:40;;;;;;;14.93;11.02;;;;;;;22.78;69.17;100569.22;5082850;27;20054;-68
2022/08/18 05:33:10;;;;;;;16.45;11.68;;;;;;;22.70;70.48;100571.03;5094114;27;20066;-67
2022/08/18 05:35:41;;;;;;;21.70;12.88;;;;;;;22.84;70.34;100583.75;5070072;28;20052;-68
2022/08/18 05:38:24;;;;;;;18.15;12.15;;;;;;;22.80;70.26;100569.88;5048983;28;20114;-65
2022/08/18 05:41:06;;;;;;;20.40;12.50;;;;;;;22.63;71.62;100580.66;5079266;27;20735;-67
2022/08/18 05:43:33;;;;;;;19.05;12.88;;;;;;;22.72;72.09;100577.91;5078177;28;20044;-64
2022/08/18 05:46:02;;;;;;;18.10;12.30;;;;;;;22.59;72.39;100573.94;5080127;27;20048;-64
2022/08/18 05:48:28;;;;;;;20.00;13.80;;;;;;;22.82;72.19;100574.25;5083032;27;20098;-66
2022/08/18 05:50:56;;;;;;;18.52;12.85;;;;;;;22.79;71.84;100580.75;5085209;28;20093;-63
2022/08/18 05:56:45;;;;;;;19.63;13.38;;;;;;;22.78;72.75;100574.56;5085551;28;20040;-63
2022/08/18 05:58:58;;;;;;;21.10;14.07;;;;;;;23.48;70.18;100579.59;5092489;27;20086;-67
2022/08/18 06:01:29;;;;;;;25.58;15.95;;;;;;;23.58;69.43;100572.25;5085835;28;20105;-67
2022/08/18 06:04:01;;;;;;;23.33;15.02;;;;;;;23.31;70.76;100572.53;5084600;28;20044;-64
2022/08/18 06:06:30;;;;;;;18.95;15.05;;;;;;;23.49;70.83;100565.22;5084304;28;20048;-66
2022/08/18 06:09:04;;;;;;;21.25;15.05;;;;;;;23.79;69.74;100569.91;5084284;28;20044;-65
2022/08/18 06:11:31;;;;;;;21.38;13.88;;;;;;;23.91;69.92;100573.09;5086530;28;20052;-63
2022/08/18 06:14:00;;;;;;;17.75;13.85;;;;;;;23.97;69.00;100577.75;5076886;28;20111;-64
2022/08/18 06:16:42;;;;;;;16.48;14.15;;;;;;;23.54;70.03;100579.75;5083518;28;20047;-66
2022/08/18 06:19:23;;;;;;;24.40;15.35;;;;;;;23.91;69.04;100578.44;5082635;28;20056;-64
2022/08/18 06:21:59;;;;;;;23.05;14.20;;;;;;;23.92;68.90;100580.94;5104659;27;20124;-66
2022/08/18 06:24:36;;;;;;;21.92;14.77;;;;;;;24.06;68.33;100582.09;5100835;27;20123;-65
2022/08/18 06:27:13;;;;;;;20.58;13.63;;;;;;;23.98;68.80;100596.31;5100182;27;20043;-65
2022/08/18 06:29:54;;;;;;;18.08;13.80;;;;;;;23.87;69.50;100602.06;5076300;28;20243;-64
2022/08/18 06:32:42;;;;;;;16.23;13.70;;;;;;;23.75;69.65;100601.53;5068510;28;20067;-65
2022/08/18 06:35:17;;;;;;;20.00;13.63;;;;;;;23.73;69.47;100598.19;5078539;27;20040;-63
2022/08/18 06:40:38;;;;;;;21.85;14.00;;;;;;;23.71;69.83;100599.38;5095050;27;20411;-64
2022/08/18 06:43:08;;;;;;;18.35;13.30;;;;;;;23.82;69.29;100601.72;5086415;27;20075;-64
2022/08/18 06:45:38;;;;;;;20.40;13.32;;;;;;;23.87;69.63;100607.41;5088714;27;20036;-64
2022/08/18 06:48:13;;;;;;;21.40;14.40;;;;;;;24.27;67.92;100611.06;5095142;27;20136;-64
2022/08/18 06:50:46;;;;;;;19.40;13.32;;;;;;;24.26;68.15;100617.41;5092076;27;20044;-66
2022/08/18 06:53:13;;;;;;;16.77;12.55;;;;;;;24.51;66.96;100621.72;5097565;27;20411;-67
2022/08/18 06:55:44;;;;;;;26.25;13.18;;;;;;;24.34;67.44;100620.09;5095908;27;20105;-65
2022/08/18 06:58:25;;;;;;;18.30;12.60;;;;;;;24.35;67.77;100633.34;5112624;27;20561;-65
2022/08/18 07:01:02;;;;;;;17.58;11.82;;;;;;;24.26;67.19;100630.81;5088187;27;20059;-66
2022/08/18 07:03:43;;;;;;;16.27;12.25;;;;;;;24.59;66.79;100633.25;5087867;28;20200;-66
2022/08/18 07:06:23;;;;;;;16.20;11.90;;;;;;;24.90;66.29;100638.72;5084835;27;20541;-66
2022/08/18 07:08:51;;;;;;;19.85;11.27;;;;;;;25.14;64.98;100638.59;5094685;27;20105;-67
2022/08/18 07:11:25;;;;;;;14.45;11.23;;;;;;;24.98;64.88;100630.63;5088930;27;20055;-64
2022/08/18 07:13:53;;;;;;;15.23;10.77;;;;;;;25.22;64.48;100639.56;5083449;27;20770;-63
2022/08/18 07:16:23;;;;;;;16.23;10.95;;;;;;;25.27;64.94;100645.25;5099383;27;20093;-68
2022/08/18 07:18:51;;;;;;;15.23;11.13;;;;;;;25.49;63.31;100653.34;5098722;27;20036;-69
2022/08/18 07:21:27;;;;;;;16.80;11.02;;;;;;;25.73;62.16;100659.56;5092012;27;20040;-65
2022/08/18 07:24:05;;;;;;;11.20;9.35;;;;;;;25.42;62.58;100652.38;5071472;27;20553;-68
2022/08/18 07:27:00;;;;;;;13.82;10.68;;;;;;;25.68;62.22;100654.75;5075867;28;20097;-66
2022/08/18 07:29:28;;;;;;;13.80;10.77;;;;;;;25.82;63.13;100643.22;5082181;27;20429;-65
2022/08/18 07:31:57;;;;;;;13.57;10.40;;;;;;;25.72;62.20;100644.50;5090869;27;20116;-67
2022/08/18 07:34:28;;;;;;;15.82;10.80;;;;;;;25.94;61.89;100635.59;5085646;27;20713;-65
2022/08/18 07:37:01;;;;;;;19.38;11.05;;;;;;;26.16;61.50;100640.91;5096913;27;20043;-65
2022/08/18 07:39:32;;;;;;;18.88;11.45;;;;;;;26.44;60.20;100643.03;5089282;27;20044;-64
2022/08/18 07:42:08;;;;;;;12.20;9.90;;;;;;;26.56;59.41;100636.19;5087509;27;20101;-67
2022/08/18 07:44:45;;;;;;;16.23;10.45;;;;;;;26.47;59.73;100632.72;5099966;27;20825;-66
2022/08/18 07:47:18;;;;;;;12.05;10.43;;;;;;;26.82;59.69;100639.25;5090024;27;20044;-66
2022/08/18 07:49:46;;;;;;;12.75;10.75;;;;;;;26.93;57.69;100637.97;5089655;27;20551;-68
2022/08/18 07:52:20;;;;;;;14.68;9.98;;;;;;;26.94;58.17;100639.63;5074325;27;20076;-66
2022/08/18 07:54:54;;;;;;;12.38;9.68;;;;;;;26.76;59.30;100634.59;5070224;27;20194;-65
2022/08/18 07:57:33;;;;;;;12.95;9.52;;;;;;;26.66;58.76;100634.03;5077397;27;20069;-68
2022/08/18 08:00:08;;;;;;;15.13;9.55;;;;;;;26.82;58.45;100639.25;5087734;27;20517;-68
2022/08/18 08:02:46;;;;;;;13.98;10.20;;;;;;;26.93;58.38;100625.34;5090875;27;20118;-64
2022/08/18 08:05:24;;;;;;;15.10;9.75;;;;;;;26.79;57.44;100638.78;5073348;28;20098;-65
2022/08/18 08:07:55;;;;;;;14.90;9.77;;;;;;;26.62;58.29;100636.28;5098461;27;20420;-65
2022/08/18 08:10:34;;;;;;;17.83;10.70;;;;;;;26.85;57.71;100638.06;5093741;27;20036;-68
2022/08/18 08:13:15;;;;;;;15.93;9.85;;;;;;;26.78;58.70;100647.88;5086561;27;20449;-68
2022/08/18 08:15:52;;;;;;;11.23;9.82;;;;;;;26.92;57.90;100652.44;5086088;27;20044;-66
2022/08/18 08:18:25;;;;;;;12.77;10.15;;;;;;;27.20;56.57;100639.13;5085638;27;20093;-66
2022/08/18 08:20:55;;;;;;;11.38;9.57;;;;;;;27.15;56.69;100647.75;5085078;27;20199;-64
2022/08/18 08:23:37;;;;;;;11.63;9.30;;;;;;;27.24;57.25;100640.38;5086058;28;20411;-64
2022/08/18 08:26:17;;;;;;;;;;;;;;;27.53;55.36;100637.66;5085769;27;20044;-67
2022/08/18 08:28:52;;;;;;;15.25;9.10;;;;;;;27.47;55.97;100638.41;5085218;28;19981;-68
2022/08/18 08:31:27;;;;;;;14.93;9.48;;;;;;;27.63;56.50;100637.34;5084896;27;20422;-67
2022/08/18 08:33:58;;;;;;;13.02;9.15;;;;;;;27.51;55.93;100635.16;5074794;28;20094;-67
2022/08/18 08:36:28;;;;;;;15.93;10.25;;;;;;;27.79;55.42;100635.22;5084998;28;20048;-67
2022/08/18 08:38:59;;;;;;;15.05;9.40;;;;;;;28.01;54.73;100644.94;5085199;28;20177;-67
2022/08/18 08:41:32;;;;;;;11.23;8.90;;;;;;;28.33;53.94;100640.88;5086628;28;20212;-71
2022/08/18 08:44:07;;;;;;;11.25;8.98;;;;;;;28.65;52.61;100643.97;5084994;27;20413;-67
2022/08/18 08:46:43;;;;;;;10.00;8.13;;;;;;;29.16;52.55;100625.56;5081775;27;20124;-67
2022/08/18 08:49:25;;;;;;;16.60;8.10;;;;;;;29.34;51.78;100632.09;5070006;28;20499;-67
2022/08/18 08:51:56;;;;;;;12.50;7.65;;;;;;;29.55;50.51;100631.13;5075833;28;20055;-67
2022/08/18 08:54:27;;;;;;;12.48;8.48;;;;;;;29.59;51.08;100640.47;5053700;28;20052;-67
2022/08/18 08:56:56;;;;;;;11.18;8.07;;;;;;;29.65;51.58;100634.25;5066994;28;20496;-67
2022/08/18 08:59:24;;;;;;;10.95;7.43;;;;;;;30.12;49.60;100638.66;5064966;28;20488;-67
2022/08/18 09:01:59;;;;;;;9.52;7.10;;;;;;;30.27;48.43;100644.69;5062371;28;20562;-67
2022/08/18 09:04:39;;;;;;;9.05;7.72;;;;;;;30.81;47.53;100639.00;5064580;28;20102;-67
2022/08/18 09:07:21;;;;;;;9.55;7.28;;;;;;;31.02;46.11;100635.19;5079787;28;20453;-68
2022/08/18 09:10:06;;;;;;;11.52;7.75;;;;;;;31.08;46.32;100637.03;5084166;28;20044;-68
2022/08/18 09:12:46;;;;;;;8.60;7.10;;;;;;;31.41;45.90;100636.91;5075579;28;20101;-67
2022/08/18 09:15:35;;;;;;;9.50;6.88;;;;;;;31.38;44.60;100642.72;5075192;28;20044;-68
2022/08/18 09:18:35;;;;;;;13.18;7.38;;;;;;;31.36;45.64;100636.72;5095713;27;20092;-68
2022/08/18 09:21:17;;;;;;;11.15;7.90;;;;;;;31.29;44.93;100630.50;5071187;27;20052;-67
2022/08/18 09:23:47;;;;;;;9.10;6.53;;;;;;;31.14;44.79;100628.06;5064010;28;20041;-67
2022/08/18 09:26:27;;;;;;;10.65;7.03;;;;;;;31.16;45.37;100627.84;5066161;28;20044;-68
2022/08/18 09:28:57;;;;;;;11.93;7.28;;;;;;;30.99;45.42;100622.09;5084142;27;20059;-67
2022/08/18 09:31:26;;;;;;;10.95;6.85;;;;;;;31.36;45.20;100620.44;5085146;27;20093;-67
2022/08/18 09:34:07;;;;;;;11.73;6.55;;;;;;;31.21;44.09;100630.75;5083183;28;20500;-68
2022/08/18 09:36:43;;;;;;;9.85;7.18;;;;;;;31.33;43.46;100629.84;5095311;27;20043;-67
2022/08/18 09:42:09;;;;;;;7.32;6.20;;;;;;;31.10;43.27;100632.25;5084935;27;20047;-67
2022/08/18 09:45:06;;;;;;;11.60;7.40;;;;;;;31.45;43.85;100632.69;5085177;27;20389;-68
2022/08/18 09:48:00;;;;;;;8.85;7.32;;;;;;;31.52;43.87;100627.25;5027916;28;20040;-68
2022/08/18 09:50:50;;;;;;;14.07;6.90;;;;;;;31.38;44.97;100631.88;5056819;28;20065;-67
2022/08/18 09:53:51;;;;;;;9.38;6.38;;;;;;;31.20;43.54;100629.06;5043307;28;20115;-68
2022/08/18 09:56:38;;;;;;;10.55;6.57;;;;;;;31.32;44.62;100635.47;5064905;28;20127;-67
2022/08/18 09:59:05;;;;;;;9.68;6.55;;;;;;;31.50;44.43;100634.75;5072493;28;20070;-67
2022/08/18 10:01:40;;;;;;;17.60;6.68;;;;;;;31.80;44.04;100644.78;5075231;28;20063;-67
2022/08/18 10:04:47;;;;;;;12.70;6.47;;;;;;;31.83;43.34;100647.06;5083618;27;20044;-67
2022/08/18 10:07:20;;;;;;;8.27;6.32;;;;;;;32.18;43.69;100643.91;5069429;28;20095;-68
2022/08/18 10:09:58;;;;;;;11.50;6.30;;;;;;;32.35;41.27;100642.25;5084417;28;20137;-67
2022/08/18 10:12:35;;;;;;;10.43;6.10;;;;;;;32.26;41.74;100647.13;5082433;28;20060;-67
2022/08/18 10:15:23;;;;;;;8.63;7.25;;;;;;;31.89;40.71;100644.53;5069658;28;20040;-67
2022/08/18 10:18:06;;;;;;;13.32;6.45;;;;;;;31.77;41.46;100647.13;5061021;28;20532;-67
2022/08/18 10:20:42;;;;;;;7.47;5.90;;;;;;;31.81;41.18;100637.50;5073248;28;20436;-67
2022/08/18 10:23:10;;;;;;;17.88;5.95;;;;;;;31.83;41.73;100635.38;5064271;28;20454;-67
2022/08/18 10:25:40;;;;;;;10.25;5.82;;;;;;;31.75;40.52;100639.19;5065845;28;20105;-67
2022/08/18 10:28:08;;;;;;;10.55;5.65;;;;;;;31.91;39.58;100631.56;5081546;27;20052;-68
2022/08/18 10:30:59;;;;;;;8.02;4.97;;;;;;;31.79;40.99;100643.13;5084272;27;20135;-67
2022/08/18 10:34:01;;;;;;;6.20;5.32;;;;;;;31.54;42.09;100634.13;5079866;28;20044;-66
2022/08/18 10:36:36;;;;;;;7.85;5.25;;;;;;;31.64;41.45;100634.47;5069369;28;20078;-68
2022/08/18 10:39:06;;;;;;;8.60;5.55;;;;;;;31.85;41.70;100636.00;5086906;27;20052;-67
2022/08/18 10:41:37;;;;;;;6.72;5.40;;;;;;;31.51;41.30;100642.66;5103368;27;20093;-67
2022/08/18 10:44:05;;;;;;;7.75;5.72;;;;;;;31.48;41.04;100639.56;5103674;27;20054;-67
2022/08/18 10:46:35;;;;;;;9.07;5.47;;;;;;;31.53;41.92;100637.88;5097075;27;20055;-67
2022/08/18 10:49:15;;;;;;;7.97;5.45;;;;;;;31.39;41.45;100634.38;5087778;27;20493;-67
2022/08/18 10:51:57;;;;;;;9.18;5.78;;;;;;;31.45;41.58;100632.69;5090612;28;20055;-68
2022/08/18 10:54:38;;;;;;;7.65;5.57;;;;;;;31.31;41.38;100636.50;5091578;28;20039;-67
2022/08/18 10:57:11;;;;;;;11.93;5.70;;;;;;;31.39;40.75;100633.56;5092808;28;20097;-67
2022/08/18 10:59:46;;;;;;;8.40;5.10;;;;;;;31.19;43.15;100625.53;5080297;28;20043;-67
2022/08/18 11:02:26;;;;;;;7.22;5.35;;;;;;;31.02;43.59;100618.94;5083601;28;20113;-67
2022/08/18 11:04:54;;;;;;;8.38;5.63;;;;;;;30.99;43.38;100615.84;5082350;28;20422;-67
2022/08/18 11:07:23;;;;;;;9.52;5.53;;;;;;;31.08;42.44;100614.56;5084209;28;20568;-67
2022/08/18 11:09:53;;;;;;;6.13;5.28;;;;;;;30.83;42.40;100622.53;5082069;27;20066;-68
2022/08/18 11:12:43;;;;;;;8.02;5.10;;;;;;;30.43;42.63;100628.06;5085094;27;20040;-67
2022/08/18 11:15:20;;;;;;;6.43;5.25;;;;;;;30.43;43.99;100621.81;5081868;28;20070;-68
2022/08/18 11:17:58;;;;;;;5.95;5.13;;;;;;;30.69;42.98;100632.59;5085574;28;20044;-68
2022/08/18 11:20:30;;;;;;;10.98;5.95;;;;;;;30.63;42.38;100621.78;5068971;28;20045;-67
2022/08/18 11:22:58;;;;;;;;;;;;;;;30.71;42.99;100613.44;5082654;28;20518;-68
2022/08/18 11:25:29;;;;;;;10.07;5.15;;;;;;;30.78;43.12;100615.03;5084754;28;19977;-68
2022/08/18 11:27:56;;;;;;;9.65;5.65;;;;;;;30.59;43.13;100610.56;5061830;28;20048;-72
2022/08/18 11:30:26;;;;;;;6.68;5.25;;;;;;;31.08;42.14;100609.97;5084615;28;20044;-68
2022/08/18 11:32:53;;;;;;;9.45;5.32;;;;;;;30.69;42.59;100610.94;5072649;27;20048;-68
2022/08/18 11:35:23;;;;;;;8.57;5.68;;;;;;;30.77;42.05;100613.41;5088579;28;20082;-68
2022/08/18 11:37:55;;;;;;;9.65;5.55;;;;;;;30.73;42.49;100605.91;5087455;27;20420;-67
2022/08/18 11:40:35;;;;;;;;;;;;;;;30.91;42.35;100604.19;5086443;27;20075;-68
2022/08/18 11:43:10;;;;;;;9.23;6.47;;;;;;;30.88;42.76;100604.63;5087413;27;19970;-67
2022/08/18 11:45:52;;;;;;;6.53;5.65;;;;;;;31.10;43.22;100601.63;5086603;27;20040;-67
2022/08/18 11:48:23;;;;;;;6.35;5.72;;;;;;;31.38;43.12;100599.38;5086437;27;20046;-68
2022/08/18 11:51:00;;;;;;;12.50;5.53;;;;;;;31.99;43.07;100606.88;5085488;27;20040;-67
2022/08/18 11:53:37;;;;;;;9.30;5.97;;;;;;;32.25;42.42;100609.38;5087651;27;20046;-67